sensor_id;sensor_type;location;lat;lon;timestamp;noise_LAeq;noise_LA_min;noise_LA_max;noise_LA01;noise_LA95
43168;Laerm;28773;48.804;9.024;2024-01-30T00:00:12;66.88;66.15;67.68;;
43168;Laerm;28773;48.804;9.024;2024-01-30T00:02:38;66.90;66.13;67.81;;
43168;Laerm;28773;48.804;9.024;2024-01-30T00:05:03;67.98;66.98;69.01;;
43168;Laerm;28773;48.804;9.024;2024-01-30T00:07:28;69.43;68.16;70.84;;
43168;Laerm;28773;48.804;9.024;2024-01-30T00:09:53;71.33;69.99;72.35;;
43168;Laerm;28773;48.804;9.024;2024-01-30T00:12:19;72.05;71.51;72.57;;
43168;Laerm;28773;48.804;9.024;2024-01-30T00:14:45;72.19;71.50;73.03;;
43168;Laerm;28773;48.804;9.024;2024-01-30T00:17:10;72.80;72.20;73.33;;
43168;Laerm;28773;48.804;9.024;2024-01-30T00:19:35;72.89;72.38;73.52;;
43168;Laerm;28773;48.804;9.024;2024-01-30T00:22:00;73.51;72.67;74.32;;
43168;Laerm;28773;48.804;9.024;2024-01-30T00:24:25;73.46;71.85;74.38;;
43168;Laerm;28773;48.804;9.024;2024-01-30T00:26:50;70.48;67.90;72.66;;
43168;Laerm;28773;48.804;9.024;2024-01-30T00:29:17;67.13;65.94;68.75;;
43168;Laerm;28773;48.804;9.024;2024-01-30T00:31:44;66.04;65.25;66.84;;
43168;Laerm;28773;48.804;9.024;2024-01-30T00:34:09;65.72;65.13;66.26;;
43168;Laerm;28773;48.804;9.024;2024-01-30T00:36:35;65.66;65.08;66.33;;
43168;Laerm;28773;48.804;9.024;2024-01-30T00:39:00;66.17;65.44;66.97;;
43168;Laerm;28773;48.804;9.024;2024-01-30T00:41:25;67.32;66.15;68.60;;
43168;Laerm;28773;48.804;9.024;2024-01-30T00:43:51;69.11;67.78;70.42;;
43168;Laerm;28773;48.804;9.024;2024-01-30T00:46:17;71.43;69.62;72.93;;
43168;Laerm;28773;48.804;9.024;2024-01-30T00:48:42;73.31;72.18;74.06;;
43168;Laerm;28773;48.804;9.024;2024-01-30T00:51:07;73.53;73.07;74.07;;
43168;Laerm;28773;48.804;9.024;2024-01-30T00:53:32;73.75;73.22;74.31;;
43168;Laerm;28773;48.804;9.024;2024-01-30T00:55:57;74.07;73.46;74.66;;
43168;Laerm;28773;48.804;9.024;2024-01-30T00:58:23;72.79;71.27;74.23;;
43168;Laerm;28773;48.804;9.024;2024-01-30T01:00:48;71.42;70.89;72.11;;
43168;Laerm;28773;48.804;9.024;2024-01-30T01:03:13;71.86;71.11;72.71;;
43168;Laerm;28773;48.804;9.024;2024-01-30T01:05:39;72.76;71.87;73.62;;
43168;Laerm;28773;48.804;9.024;2024-01-30T01:08:04;73.64;72.80;74.53;;
43168;Laerm;28773;48.804;9.024;2024-01-30T01:10:29;74.76;73.70;76.02;;
43168;Laerm;28773;48.804;9.024;2024-01-30T01:12:54;76.73;75.20;77.92;;
43168;Laerm;28773;48.804;9.024;2024-01-30T01:15:19;78.44;77.18;79.63;;
43168;Laerm;28773;48.804;9.024;2024-01-30T01:17:44;79.22;78.29;79.85;;
43168;Laerm;28773;48.804;9.024;2024-01-30T01:20:10;77.81;76.73;79.05;;
43168;Laerm;28773;48.804;9.024;2024-01-30T01:22:35;76.94;76.44;77.53;;
43168;Laerm;28773;48.804;9.024;2024-01-30T01:25:01;76.82;76.34;77.33;;
43168;Laerm;28773;48.804;9.024;2024-01-30T01:27:26;76.80;76.31;77.33;;
43168;Laerm;28773;48.804;9.024;2024-01-30T01:29:52;77.13;76.50;77.83;;
43168;Laerm;28773;48.804;9.024;2024-01-30T01:32:17;77.84;77.06;78.70;;
43168;Laerm;28773;48.804;9.024;2024-01-30T01:34:43;79.35;77.93;80.54;;
43168;Laerm;28773;48.804;9.024;2024-01-30T01:37:08;80.83;79.87;81.89;;
43168;Laerm;28773;48.804;9.024;2024-01-30T01:39:33;81.76;81.14;82.29;;
43168;Laerm;28773;48.804;9.024;2024-01-30T01:41:58;81.73;81.21;82.26;;
43168;Laerm;28773;48.804;9.024;2024-01-30T01:44:23;81.44;80.85;82.01;;
43168;Laerm;28773;48.804;9.024;2024-01-30T01:46:49;80.91;80.07;81.62;;
43168;Laerm;28773;48.804;9.024;2024-01-30T01:49:14;80.07;79.18;80.83;;
43168;Laerm;28773;48.804;9.024;2024-01-30T01:51:39;79.10;78.34;79.99;;
43168;Laerm;28773;48.804;9.024;2024-01-30T01:54:06;78.23;77.09;79.17;;
43168;Laerm;28773;48.804;9.024;2024-01-30T01:56:32;76.88;76.00;77.92;;
43168;Laerm;28773;48.804;9.024;2024-01-30T01:58:59;76.31;75.85;76.80;;
43168;Laerm;28773;48.804;9.024;2024-01-30T02:01:24;76.70;75.90;77.75;;
43168;Laerm;28773;48.804;9.024;2024-01-30T02:03:50;78.27;76.99;79.56;;
43168;Laerm;28773;48.804;9.024;2024-01-30T02:06:15;79.74;78.75;80.58;;
43168;Laerm;28773;48.804;9.024;2024-01-30T02:08:41;80.50;79.80;81.08;;
43168;Laerm;28773;48.804;9.024;2024-01-30T02:11:06;80.29;79.58;80.99;;
43168;Laerm;28773;48.804;9.024;2024-01-30T02:13:32;79.59;78.64;80.36;;
43168;Laerm;28773;48.804;9.024;2024-01-30T02:15:57;78.34;77.20;79.40;;
43168;Laerm;28773;48.804;9.024;2024-01-30T02:18:22;76.93;75.92;78.03;;
43168;Laerm;28773;48.804;9.024;2024-01-30T02:20:47;75.88;75.13;76.68;;
43168;Laerm;28773;48.804;9.024;2024-01-30T02:23:13;75.25;74.66;75.91;;
43168;Laerm;28773;48.804;9.024;2024-01-30T02:25:40;75.16;74.64;75.67;;
43168;Laerm;28773;48.804;9.024;2024-01-30T02:28:12;74.52;73.70;75.40;;
43168;Laerm;28773;48.804;9.024;2024-01-30T02:30:38;74.14;73.60;74.76;;
43168;Laerm;28773;48.804;9.024;2024-01-30T02:33:04;74.98;73.96;75.99;;
43168;Laerm;28773;48.804;9.024;2024-01-30T02:35:29;76.28;75.18;77.33;;
43168;Laerm;28773;48.804;9.024;2024-01-30T02:37:54;77.39;76.57;78.07;;
43168;Laerm;28773;48.804;9.024;2024-01-30T02:40:19;77.67;77.08;78.18;;
43168;Laerm;28773;48.804;9.024;2024-01-30T02:42:44;77.10;76.40;77.91;;
43168;Laerm;28773;48.804;9.024;2024-01-30T02:45:10;76.92;76.39;77.42;;
43168;Laerm;28773;48.804;9.024;2024-01-30T02:47:35;76.86;76.33;77.42;;
43168;Laerm;28773;48.804;9.024;2024-01-30T02:50:00;76.55;75.80;77.19;;
43168;Laerm;28773;48.804;9.024;2024-01-30T02:52:26;76.17;75.60;76.92;;
43168;Laerm;28773;48.804;9.024;2024-01-30T02:54:51;76.89;76.19;77.48;;
43168;Laerm;28773;48.804;9.024;2024-01-30T02:57:16;76.35;75.26;77.38;;
43168;Laerm;28773;48.804;9.024;2024-01-30T02:59:41;74.98;73.97;76.08;;
43168;Laerm;28773;48.804;9.024;2024-01-30T03:02:06;73.96;73.32;74.81;;
43168;Laerm;28773;48.804;9.024;2024-01-30T03:04:32;73.92;73.31;74.73;;
43168;Laerm;28773;48.804;9.024;2024-01-30T03:06:57;74.78;73.92;75.76;;
43168;Laerm;28773;48.804;9.024;2024-01-30T03:09:22;76.04;74.94;77.15;;
43168;Laerm;28773;48.804;9.024;2024-01-30T03:11:47;77.55;76.36;78.71;;
43168;Laerm;28773;48.804;9.024;2024-01-30T03:14:12;79.09;77.91;80.19;;
43168;Laerm;28773;48.804;9.024;2024-01-30T03:16:38;80.41;79.36;81.47;;
43168;Laerm;28773;48.804;9.024;2024-01-30T03:19:03;81.75;80.70;82.72;;
43168;Laerm;28773;48.804;9.024;2024-01-30T03:21:28;82.85;81.91;83.77;;
43168;Laerm;28773;48.804;9.024;2024-01-30T03:23:54;83.83;82.99;84.70;;
43168;Laerm;28773;48.804;9.024;2024-01-30T03:26:19;84.85;83.94;85.87;;
43168;Laerm;28773;48.804;9.024;2024-01-30T03:28:44;85.96;85.01;86.74;;
43168;Laerm;28773;48.804;9.024;2024-01-30T03:31:09;86.52;85.45;87.62;;
43168;Laerm;28773;48.804;9.024;2024-01-30T03:33:36;87.65;86.91;88.38;;
43168;Laerm;28773;48.804;9.024;2024-01-30T03:36:04;88.31;87.60;88.94;;
43168;Laerm;28773;48.804;9.024;2024-01-30T03:38:29;88.84;88.21;89.46;;
43168;Laerm;28773;48.804;9.024;2024-01-30T03:43:25;89.69;89.22;90.20;;
43168;Laerm;28773;48.804;9.024;2024-01-30T03:45:50;89.68;89.19;90.14;;
43168;Laerm;28773;48.804;9.024;2024-01-30T03:48:15;90.04;89.40;90.71;;
43168;Laerm;28773;48.804;9.024;2024-01-30T03:50:41;90.31;89.76;90.90;;
43168;Laerm;28773;48.804;9.024;2024-01-30T03:53:06;90.34;89.85;90.92;;
43168;Laerm;28773;48.804;9.024;2024-01-30T03:55:31;89.85;89.09;90.64;;
43168;Laerm;28773;48.804;9.024;2024-01-30T03:57:56;89.10;88.37;89.78;;
43168;Laerm;28773;48.804;9.024;2024-01-30T04:00:21;88.56;87.93;89.05;;
43168;Laerm;28773;48.804;9.024;2024-01-30T04:02:46;87.98;87.35;88.63;;
43168;Laerm;28773;48.804;9.024;2024-01-30T04:05:12;88.53;87.75;89.33;;
43168;Laerm;28773;48.804;9.024;2024-01-30T04:07:37;89.14;88.62;89.60;;
43168;Laerm;28773;48.804;9.024;2024-01-30T04:10:02;88.48;87.44;89.36;;
43168;Laerm;28773;48.804;9.024;2024-01-30T04:12:30;87.25;86.30;88.17;;
43168;Laerm;28773;48.804;9.024;2024-01-30T04:14:55;86.14;85.30;87.06;;
43168;Laerm;28773;48.804;9.024;2024-01-30T04:17:20;85.43;84.75;86.09;;
43168;Laerm;28773;48.804;9.024;2024-01-30T04:19:46;85.19;84.66;85.73;;
43168;Laerm;28773;48.804;9.024;2024-01-30T04:22:11;85.55;84.93;86.12;;
43168;Laerm;28773;48.804;9.024;2024-01-30T04:24:36;86.12;85.33;87.08;;
43168;Laerm;28773;48.804;9.024;2024-01-30T04:27:01;87.36;86.34;88.29;;
43168;Laerm;28773;48.804;9.024;2024-01-30T04:29:27;88.44;87.61;89.25;;
43168;Laerm;28773;48.804;9.024;2024-01-30T04:31:52;89.21;88.58;89.90;;
43168;Laerm;28773;48.804;9.024;2024-01-30T04:34:17;89.59;89.13;90.24;;
43168;Laerm;28773;48.804;9.024;2024-01-30T04:36:44;90.29;89.55;91.02;;
43168;Laerm;28773;48.804;9.024;2024-01-30T04:39:09;90.78;90.18;91.46;;
43168;Laerm;28773;48.804;9.024;2024-01-30T04:41:34;91.17;90.45;91.97;;
43168;Laerm;28773;48.804;9.024;2024-01-30T04:43:59;91.85;91.19;92.33;;
43168;Laerm;28773;48.804;9.024;2024-01-30T04:46:25;92.04;91.55;92.70;;
43168;Laerm;28773;48.804;9.024;2024-01-30T04:48:50;92.39;91.88;93.00;;
43168;Laerm;28773;48.804;9.024;2024-01-30T04:51:15;92.68;92.08;93.57;;
43168;Laerm;28773;48.804;9.024;2024-01-30T04:53:40;93.32;92.72;93.97;;
43168;Laerm;28773;48.804;9.024;2024-01-30T04:56:05;93.59;92.99;94.24;;
43168;Laerm;28773;48.804;9.024;2024-01-30T04:58:31;93.63;92.92;94.24;;
43168;Laerm;28773;48.804;9.024;2024-01-30T05:00:56;94.03;93.36;94.71;;
43168;Laerm;28773;48.804;9.024;2024-01-30T05:03:21;94.27;93.69;94.85;;
43168;Laerm;28773;48.804;9.024;2024-01-30T05:05:47;94.29;93.55;94.92;;
43168;Laerm;28773;48.804;9.024;2024-01-30T05:08:13;94.46;93.78;95.08;;
43168;Laerm;28773;48.804;9.024;2024-01-30T05:10:38;94.50;93.76;95.25;;
43168;Laerm;28773;48.804;9.024;2024-01-30T05:13:03;94.75;94.06;95.35;;
43168;Laerm;28773;48.804;9.024;2024-01-30T05:15:28;94.66;94.01;95.26;;
43168;Laerm;28773;48.804;9.024;2024-01-30T05:17:53;94.54;93.81;95.11;;
43168;Laerm;28773;48.804;9.024;2024-01-30T05:20:19;94.40;93.80;94.95;;
43168;Laerm;28773;48.804;9.024;2024-01-30T05:22:45;94.14;93.50;94.76;;
43168;Laerm;28773;48.804;9.024;2024-01-30T05:25:10;93.52;92.76;94.31;;
43168;Laerm;28773;48.804;9.024;2024-01-30T05:27:35;93.33;92.72;94.03;;
43168;Laerm;28773;48.804;9.024;2024-01-30T05:30:01;93.39;92.72;94.07;;
43168;Laerm;28773;48.804;9.024;2024-01-30T05:32:26;93.86;93.11;94.56;;
43168;Laerm;28773;48.804;9.024;2024-01-30T05:34:51;94.13;93.44;94.66;;
43168;Laerm;28773;48.804;9.024;2024-01-30T05:37:16;93.76;93.15;94.36;;
43168;Laerm;28773;48.804;9.024;2024-01-30T05:39:42;93.23;92.53;93.94;;
43168;Laerm;28773;48.804;9.024;2024-01-30T05:42:08;91.96;90.49;93.16;;
43168;Laerm;28773;48.804;9.024;2024-01-30T05:44:33;89.72;88.24;91.18;;
43168;Laerm;28773;48.804;9.024;2024-01-30T05:46:58;88.06;87.20;88.84;;
43168;Laerm;28773;48.804;9.024;2024-01-30T05:49:23;87.38;86.82;87.94;;
43168;Laerm;28773;48.804;9.024;2024-01-30T05:51:48;87.05;86.47;87.53;;
43168;Laerm;28773;48.804;9.024;2024-01-30T05:54:14;86.65;86.18;87.21;;
43168;Laerm;28773;48.804;9.024;2024-01-30T05:56:39;86.47;85.70;86.98;;
43168;Laerm;28773;48.804;9.024;2024-01-30T05:59:04;85.36;84.11;86.49;;
43168;Laerm;28773;48.804;9.024;2024-01-30T06:01:29;83.89;83.12;84.82;;
43168;Laerm;28773;48.804;9.024;2024-01-30T06:03:54;83.56;83.07;84.12;;
43168;Laerm;28773;48.804;9.024;2024-01-30T06:06:20;84.22;83.40;84.98;;
43168;Laerm;28773;48.804;9.024;2024-01-30T06:08:45;85.03;84.24;85.74;;
43168;Laerm;28773;48.804;9.024;2024-01-30T06:11:11;85.74;85.00;86.35;;
43168;Laerm;28773;48.804;9.024;2024-01-30T06:13:37;86.40;85.61;87.03;;
43168;Laerm;28773;48.804;9.024;2024-01-30T06:16:02;87.17;86.42;87.69;;
43168;Laerm;28773;48.804;9.024;2024-01-30T06:18:27;87.56;87.01;88.06;;
43168;Laerm;28773;48.804;9.024;2024-01-30T06:20:54;87.68;87.21;88.12;;
43168;Laerm;28773;48.804;9.024;2024-01-30T06:23:19;87.83;87.33;88.26;;
43168;Laerm;28773;48.804;9.024;2024-01-30T06:25:44;87.98;87.48;88.42;;
43168;Laerm;28773;48.804;9.024;2024-01-30T06:28:10;88.34;87.75;88.98;;
43168;Laerm;28773;48.804;9.024;2024-01-30T06:30:35;88.79;88.25;89.50;;
43168;Laerm;28773;48.804;9.024;2024-01-30T06:33:00;89.55;88.76;90.58;;
43168;Laerm;28773;48.804;9.024;2024-01-30T06:35:25;90.64;89.84;91.58;;
43168;Laerm;28773;48.804;9.024;2024-01-30T06:37:50;91.69;90.56;92.57;;
43168;Laerm;28773;48.804;9.024;2024-01-30T06:40:16;92.46;91.57;93.05;;
43168;Laerm;28773;48.804;9.024;2024-01-30T06:42:41;92.30;91.64;92.90;;
43168;Laerm;28773;48.804;9.024;2024-01-30T06:45:06;91.53;90.57;92.34;;
43168;Laerm;28773;48.804;9.024;2024-01-30T06:47:32;89.83;87.86;91.28;;
43168;Laerm;28773;48.804;9.024;2024-01-30T06:49:58;86.67;84.62;88.56;;
43168;Laerm;28773;48.804;9.024;2024-01-30T06:52:23;83.56;81.44;85.32;;
43168;Laerm;28773;48.804;9.024;2024-01-30T06:54:48;80.29;78.19;82.18;;
43168;Laerm;28773;48.804;9.024;2024-01-30T06:57:13;77.52;76.31;79.02;;
43168;Laerm;28773;48.804;9.024;2024-01-30T06:59:39;76.08;75.01;77.14;;
43168;Laerm;28773;48.804;9.024;2024-01-30T07:02:09;74.90;73.99;75.78;;
43168;Laerm;28773;48.804;9.024;2024-01-30T07:04:34;73.91;73.14;74.77;;
43168;Laerm;28773;48.804;9.024;2024-01-30T07:07:00;72.81;71.61;73.95;;
43168;Laerm;28773;48.804;9.024;2024-01-30T07:09:25;71.40;70.74;72.42;;
43168;Laerm;28773;48.804;9.024;2024-01-30T07:11:51;70.88;69.90;71.60;;
43168;Laerm;28773;48.804;9.024;2024-01-30T07:14:16;69.61;68.66;70.71;;
43168;Laerm;28773;48.804;9.024;2024-01-30T07:16:41;69.33;68.71;69.88;;
43168;Laerm;28773;48.804;9.024;2024-01-30T07:19:06;68.81;67.96;69.68;;
43168;Laerm;28773;48.804;9.024;2024-01-30T07:21:34;68.13;67.52;68.85;;
43168;Laerm;28773;48.804;9.024;2024-01-30T07:23:59;68.10;67.51;68.71;;
43168;Laerm;28773;48.804;9.024;2024-01-30T07:26:24;67.49;66.17;68.61;;
43168;Laerm;28773;48.804;9.024;2024-01-30T07:28:49;65.79;64.51;67.02;;
43168;Laerm;28773;48.804;9.024;2024-01-30T07:31:15;64.54;63.93;65.37;;
43168;Laerm;28773;48.804;9.024;2024-01-30T07:33:40;64.69;64.06;65.26;;
43168;Laerm;28773;48.804;9.024;2024-01-30T07:36:05;65.37;64.33;66.77;;
43168;Laerm;28773;48.804;9.024;2024-01-30T07:38:34;67.46;65.98;68.65;;
43168;Laerm;28773;48.804;9.024;2024-01-30T07:40:59;68.96;67.79;70.15;;
43168;Laerm;28773;48.804;9.024;2024-01-30T07:43:24;70.10;69.26;70.79;;
43168;Laerm;28773;48.804;9.024;2024-01-30T07:45:49;69.80;68.61;70.74;;
43168;Laerm;28773;48.804;9.024;2024-01-30T07:48:14;68.43;67.42;69.49;;
43168;Laerm;28773;48.804;9.024;2024-01-30T07:50:40;67.42;66.65;68.28;;
43168;Laerm;28773;48.804;9.024;2024-01-30T07:53:05;66.91;66.37;67.50;;
43168;Laerm;28773;48.804;9.024;2024-01-30T07:55:30;66.96;66.38;67.62;;
43168;Laerm;28773;48.804;9.024;2024-01-30T07:57:57;67.65;66.76;68.56;;
43168;Laerm;28773;48.804;9.024;2024-01-30T08:00:22;68.50;67.67;69.29;;
43168;Laerm;28773;48.804;9.024;2024-01-30T08:02:47;69.03;68.43;69.56;;
43168;Laerm;28773;48.804;9.024;2024-01-30T08:05:13;68.93;68.39;69.52;;
43168;Laerm;28773;48.804;9.024;2024-01-30T08:07:40;69.10;68.46;69.69;;
43168;Laerm;28773;48.804;9.024;2024-01-30T08:10:05;69.24;68.76;69.79;;
43168;Laerm;28773;48.804;9.024;2024-01-30T08:12:30;69.32;68.66;69.89;;
43168;Laerm;28773;48.804;9.024;2024-01-30T08:14:56;68.60;67.44;69.50;;
43168;Laerm;28773;48.804;9.024;2024-01-30T08:17:21;66.27;64.37;68.21;;
43168;Laerm;28773;48.804;9.024;2024-01-30T08:19:46;64.13;63.33;65.20;;
43168;Laerm;28773;48.804;9.024;2024-01-30T08:22:11;64.00;63.40;64.57;;
43168;Laerm;28773;48.804;9.024;2024-01-30T08:24:37;63.92;63.33;64.54;;
43168;Laerm;28773;48.804;9.024;2024-01-30T08:27:02;64.14;63.45;64.70;;
43168;Laerm;28773;48.804;9.024;2024-01-30T08:29:27;63.47;62.65;64.33;;
43168;Laerm;28773;48.804;9.024;2024-01-30T08:31:52;63.18;62.64;63.72;;
43168;Laerm;28773;48.804;9.024;2024-01-30T08:34:18;63.08;62.20;63.71;;
43168;Laerm;28773;48.804;9.024;2024-01-30T08:36:43;61.90;60.62;63.07;;
43168;Laerm;28773;48.804;9.024;2024-01-30T08:39:10;60.75;59.98;61.54;;
43168;Laerm;28773;48.804;9.024;2024-01-30T08:41:35;59.46;58.13;60.87;;
43168;Laerm;28773;48.804;9.024;2024-01-30T08:44:00;58.18;57.28;59.02;;
43168;Laerm;28773;48.804;9.024;2024-01-30T08:46:25;57.51;56.37;58.23;;
43168;Laerm;28773;48.804;9.024;2024-01-30T08:48:50;55.99;54.86;57.30;;
43168;Laerm;28773;48.804;9.024;2024-01-30T08:51:16;54.97;54.17;55.83;;
43168;Laerm;28773;48.804;9.024;2024-01-30T08:53:41;53.94;52.62;55.18;;
43168;Laerm;28773;48.804;9.024;2024-01-30T08:56:06;52.14;50.37;53.68;;
43168;Laerm;28773;48.804;9.024;2024-01-30T08:58:32;50.38;49.64;51.36;;
43168;Laerm;28773;48.804;9.024;2024-01-30T09:00:57;49.94;48.65;51.06;;
43168;Laerm;28773;48.804;9.024;2024-01-30T09:03:22;48.16;46.50;49.69;;
43168;Laerm;28773;48.804;9.024;2024-01-30T09:05:47;46.56;45.62;47.95;;
43168;Laerm;28773;48.804;9.024;2024-01-30T09:08:12;45.74;44.10;47.13;;
43168;Laerm;28773;48.804;9.024;2024-01-30T09:10:37;44.47;43.48;46.73;;
43168;Laerm;28773;48.804;9.024;2024-01-30T09:13:03;44.40;43.48;45.89;;
43168;Laerm;28773;48.804;9.024;2024-01-30T09:15:28;44.15;43.34;46.14;;
43168;Laerm;28773;48.804;9.024;2024-01-30T09:17:53;44.16;43.23;45.55;;
43168;Laerm;28773;48.804;9.024;2024-01-30T09:20:19;43.96;43.09;45.57;;
43168;Laerm;28773;48.804;9.024;2024-01-30T09:22:45;43.58;42.33;45.67;;
43168;Laerm;28773;48.804;9.024;2024-01-30T09:25:10;42.56;41.02;45.20;;
43168;Laerm;28773;48.804;9.024;2024-01-30T09:27:35;41.50;40.42;44.46;;
43168;Laerm;28773;48.804;9.024;2024-01-30T09:30:00;41.42;40.14;45.02;;
43168;Laerm;28773;48.804;9.024;2024-01-30T09:32:26;40.87;39.29;43.99;;
43168;Laerm;28773;48.804;9.024;2024-01-30T09:34:51;40.11;38.79;43.08;;
43168;Laerm;28773;48.804;9.024;2024-01-30T09:37:16;39.70;38.54;43.02;;
43168;Laerm;28773;48.804;9.024;2024-01-30T09:39:43;39.28;37.96;42.27;;
43168;Laerm;28773;48.804;9.024;2024-01-30T09:42:11;38.47;36.88;41.31;;
43168;Laerm;28773;48.804;9.024;2024-01-30T09:44:42;37.66;35.99;45.56;;
43168;Laerm;28773;48.804;9.024;2024-01-30T09:47:08;37.37;35.53;45.05;;
43168;Laerm;28773;48.804;9.024;2024-01-30T09:49:33;36.74;35.03;43.98;;
43168;Laerm;28773;48.804;9.024;2024-01-30T09:51:59;36.18;34.49;44.11;;
43168;Laerm;28773;48.804;9.024;2024-01-30T09:54:24;36.08;34.09;41.90;;
43168;Laerm;28773;48.804;9.024;2024-01-30T09:56:49;35.53;33.83;42.70;;
43168;Laerm;28773;48.804;9.024;2024-01-30T09:59:15;35.10;33.57;41.03;;
43168;Laerm;28773;48.804;9.024;2024-01-30T10:01:40;35.14;33.44;39.97;;
43168;Laerm;28773;48.804;9.024;2024-01-30T10:04:05;34.82;33.23;39.89;;
43168;Laerm;28773;48.804;9.024;2024-01-30T10:06:31;34.45;32.92;39.45;;
43168;Laerm;28773;48.804;9.024;2024-01-30T10:08:57;35.27;32.93;41.90;;
43168;Laerm;28773;48.804;9.024;2024-01-30T10:11:22;35.08;32.96;41.89;;
43168;Laerm;28773;48.804;9.024;2024-01-30T10:13:47;35.17;32.69;41.03;;
43168;Laerm;28773;48.804;9.024;2024-01-30T10:16:15;34.66;32.65;41.26;;
43168;Laerm;28773;48.804;9.024;2024-01-30T10:18:41;34.99;32.56;43.58;;
43168;Laerm;28773;48.804;9.024;2024-01-30T10:21:07;33.90;32.24;38.06;;
43168;Laerm;28773;48.804;9.024;2024-01-30T10:23:32;34.27;32.46;40.48;;
43168;Laerm;28773;48.804;9.024;2024-01-30T10:25:58;35.25;32.38;42.23;;
43168;Laerm;28773;48.804;9.024;2024-01-30T10:28:26;33.83;32.22;39.32;;
43168;Laerm;28773;48.804;9.024;2024-01-30T10:30:58;34.77;32.20;41.20;;
43168;Laerm;28773;48.804;9.024;2024-01-30T10:33:24;34.62;32.00;42.62;;
43168;Laerm;28773;48.804;9.024;2024-01-30T10:35:49;34.28;31.92;39.41;;
43168;Laerm;28773;48.804;9.024;2024-01-30T10:38:15;34.08;31.45;41.37;;
43168;Laerm;28773;48.804;9.024;2024-01-30T10:40:42;33.42;31.20;40.85;;
43168;Laerm;28773;48.804;9.024;2024-01-30T10:43:08;33.85;31.14;41.19;;
43168;Laerm;28773;48.804;9.024;2024-01-30T10:45:36;33.85;31.19;40.46;;
43168;Laerm;28773;48.804;9.024;2024-01-30T10:48:05;34.96;31.13;45.47;;
43168;Laerm;28773;48.804;9.024;2024-01-30T10:50:31;32.72;30.75;40.17;;
43168;Laerm;28773;48.804;9.024;2024-01-30T10:52:58;33.53;30.81;41.85;;
43168;Laerm;28773;48.804;9.024;2024-01-30T10:55:24;34.56;30.78;47.80;;
43168;Laerm;28773;48.804;9.024;2024-01-30T10:57:50;33.49;30.77;39.86;;
43168;Laerm;28773;48.804;9.024;2024-01-30T11:00:15;39.76;31.02;61.94;;
43168;Laerm;28773;48.804;9.024;2024-01-30T11:02:42;34.02;30.61;42.74;;
43168;Laerm;28773;48.804;9.024;2024-01-30T11:05:08;34.55;30.64;44.95;;
43168;Laerm;28773;48.804;9.024;2024-01-30T11:07:34;33.50;30.42;41.31;;
43168;Laerm;28773;48.804;9.024;2024-01-30T11:12:33;33.50;30.30;41.66;;
43168;Laerm;28773;48.804;9.024;2024-01-30T11:20:14;33.75;30.08;43.62;;
43168;Laerm;28773;48.804;9.024;2024-01-30T11:22:41;33.74;30.30;41.18;;
43168;Laerm;28773;48.804;9.024;2024-01-30T11:25:06;34.39;30.16;43.10;;
43168;Laerm;28773;48.804;9.024;2024-01-30T11:27:32;34.23;30.25;45.46;;
43168;Laerm;28773;48.804;9.024;2024-01-30T11:30:01;33.52;29.97;41.55;;
43168;Laerm;28773;48.804;9.024;2024-01-30T11:32:27;33.84;30.18;40.98;;
43168;Laerm;28773;48.804;9.024;2024-01-30T11:34:53;33.86;30.00;41.08;;
43168;Laerm;28773;48.804;9.024;2024-01-30T11:37:18;34.16;30.11;43.33;;
43168;Laerm;28773;48.804;9.024;2024-01-30T11:39:45;33.26;30.10;42.04;;
43168;Laerm;28773;48.804;9.024;2024-01-30T11:42:11;33.17;30.16;42.46;;
43168;Laerm;28773;48.804;9.024;2024-01-30T11:44:36;34.28;30.04;42.24;;
43168;Laerm;28773;48.804;9.024;2024-01-30T11:47:01;32.33;29.92;40.75;;
43168;Laerm;28773;48.804;9.024;2024-01-30T11:49:28;33.83;30.10;39.98;;
43168;Laerm;28773;48.804;9.024;2024-01-30T11:51:53;34.49;30.08;41.38;;
43168;Laerm;28773;48.804;9.024;2024-01-30T11:54:19;33.77;30.04;40.45;;
43168;Laerm;28773;48.804;9.024;2024-01-30T11:56:44;34.86;30.06;46.97;;
43168;Laerm;28773;48.804;9.024;2024-01-30T11:59:09;34.36;30.08;40.89;;
43168;Laerm;28773;48.804;9.024;2024-01-30T12:01:34;34.20;30.00;40.70;;
43168;Laerm;28773;48.804;9.024;2024-01-30T12:04:00;34.07;30.04;40.25;;
43168;Laerm;28773;48.804;9.024;2024-01-30T12:06:25;34.74;30.16;45.43;;
43168;Laerm;28773;48.804;9.024;2024-01-30T12:09:00;33.63;29.67;40.64;;
43168;Laerm;28773;48.804;9.024;2024-01-30T12:11:26;33.97;29.81;45.71;;
43168;Laerm;28773;48.804;9.024;2024-01-30T12:13:52;33.56;29.91;45.01;;
43168;Laerm;28773;48.804;9.024;2024-01-30T12:16:17;33.15;30.00;39.56;;
43168;Laerm;28773;48.804;9.024;2024-01-30T12:18:43;33.19;29.83;39.12;;
43168;Laerm;28773;48.804;9.024;2024-01-30T12:21:08;34.08;30.17;42.29;;
43168;Laerm;28773;48.804;9.024;2024-01-30T12:23:34;33.23;30.13;42.74;;
43168;Laerm;28773;48.804;9.024;2024-01-30T12:26:00;33.90;29.74;44.12;;
43168;Laerm;28773;48.804;9.024;2024-01-30T12:28:26;33.82;30.05;41.92;;
43168;Laerm;28773;48.804;9.024;2024-01-30T12:30:55;33.46;29.74;40.29;;
43168;Laerm;28773;48.804;9.024;2024-01-30T12:33:20;33.11;29.90;46.89;;
43168;Laerm;28773;48.804;9.024;2024-01-30T12:35:46;33.65;30.04;48.31;;
43168;Laerm;28773;48.804;9.024;2024-01-30T12:38:12;33.97;29.98;40.94;;
43168;Laerm;28773;48.804;9.024;2024-01-30T12:40:37;33.03;29.83;40.94;;
43168;Laerm;28773;48.804;9.024;2024-01-30T12:43:02;34.28;30.01;48.56;;
43168;Laerm;28773;48.804;9.024;2024-01-30T12:45:28;33.01;29.76;41.30;;
43168;Laerm;28773;48.804;9.024;2024-01-30T12:47:53;32.56;29.89;39.12;;
43168;Laerm;28773;48.804;9.024;2024-01-30T12:50:18;33.94;30.09;42.56;;
43168;Laerm;28773;48.804;9.024;2024-01-30T12:52:44;33.59;29.85;41.51;;
43168;Laerm;28773;48.804;9.024;2024-01-30T12:55:09;34.82;29.79;48.76;;
43168;Laerm;28773;48.804;9.024;2024-01-30T12:57:34;33.17;29.96;43.79;;
43168;Laerm;28773;48.804;9.024;2024-01-30T12:59:59;33.96;29.97;41.42;;
43168;Laerm;28773;48.804;9.024;2024-01-30T13:02:25;33.77;29.99;42.36;;
43168;Laerm;28773;48.804;9.024;2024-01-30T13:04:51;34.63;29.90;47.12;;
43168;Laerm;28773;48.804;9.024;2024-01-30T13:07:17;34.50;29.73;47.36;;
43168;Laerm;28773;48.804;9.024;2024-01-30T13:09:42;35.13;29.84;41.92;;
43168;Laerm;28773;48.804;9.024;2024-01-30T13:12:08;33.97;30.07;41.43;;
43168;Laerm;28773;48.804;9.024;2024-01-30T13:14:33;33.65;29.31;46.29;;
43168;Laerm;28773;48.804;9.024;2024-01-30T13:16:58;33.45;29.81;39.90;;
43168;Laerm;28773;48.804;9.024;2024-01-30T13:19:23;34.58;29.85;43.08;;
43168;Laerm;28773;48.804;9.024;2024-01-30T13:21:48;33.54;29.74;40.99;;
43168;Laerm;28773;48.804;9.024;2024-01-30T13:24:14;32.68;29.86;41.17;;
43168;Laerm;28773;48.804;9.024;2024-01-30T13:26:39;34.77;30.00;47.71;;
43168;Laerm;28773;48.804;9.024;2024-01-30T13:29:04;34.24;29.72;42.14;;
43168;Laerm;28773;48.804;9.024;2024-01-30T13:31:30;35.01;29.77;44.10;;
43168;Laerm;28773;48.804;9.024;2024-01-30T13:33:55;33.97;29.53;42.11;;
43168;Laerm;28773;48.804;9.024;2024-01-30T13:36:20;34.02;29.70;41.10;;
43168;Laerm;28773;48.804;9.024;2024-01-30T13:38:46;33.99;29.93;43.03;;
43168;Laerm;28773;48.804;9.024;2024-01-30T13:41:11;33.00;29.19;44.02;;
43168;Laerm;28773;48.804;9.024;2024-01-30T13:43:36;33.14;29.79;40.91;;